Terminal Aerodrome Forecast
Issued by NWS

Home | Current Version | Previous Version | Graphics & Text | Print | Product List | Glossary On
Versions: 1 2 3 4 5 6 7 8 9 10 11 12 13 14 15 16 17
000
FTUS43 KICT 141100
TAFHUT
TAF
KHUT 141132Z 1412/1512 35018G26KT P6SM -SN OVC040
      TEMPO 1412/1414 3SM BR OVC010
     FM141400 36023G33KT P6SM BKN060
     FM150000 32009KT P6SM SCT100
     FM150500 27006KT P6SM SKC=

USA.gov is the U.S. government's official web portal to all federal, state and local government web resources and services.